createdAt,value
2017-12-27T00:00:42.928Z,50.40
2017-12-27T00:01:47.909Z,50.40
2017-12-27T00:02:53.366Z,50.40
2017-12-27T00:03:59.009Z,50.40
2017-12-27T00:05:03.848Z,50.50
2017-12-27T00:06:08.953Z,50.50
2017-12-27T00:07:13.885Z,50.50
2017-12-27T00:08:18.784Z,50.40
2017-12-27T00:09:23.897Z,50.40
2017-12-27T00:10:28.805Z,50.50
2017-12-27T00:11:33.766Z,50.40
2017-12-27T00:12:38.825Z,50.40
2017-12-27T00:13:43.809Z,50.40
2017-12-27T00:14:48.713Z,50.40
2017-12-27T00:15:53.528Z,50.50
2017-12-27T00:16:58.995Z,50.50
2017-12-27T00:18:03.937Z,50.50
2017-12-27T00:19:08.865Z,50.50
2017-12-27T00:20:13.715Z,50.60
2017-12-27T00:21:18.654Z,50.60
2017-12-27T00:22:24.197Z,50.70
2017-12-27T00:23:28.978Z,50.80
2017-12-27T00:24:50.006Z,50.70
2017-12-27T00:25:54.963Z,50.70
2017-12-27T00:26:59.719Z,50.70
2017-12-27T00:28:04.520Z,50.70
2017-12-27T00:29:09.332Z,50.70
2017-12-27T00:30:14.132Z,50.70
2017-12-27T00:31:19.093Z,50.70
2017-12-27T00:32:24.023Z,50.70
2017-12-27T00:33:28.840Z,50.70
2017-12-27T00:34:33.787Z,50.70
2017-12-27T00:35:38.849Z,50.60
2017-12-27T00:36:44.185Z,50.60
2017-12-27T00:37:48.954Z,50.60
2017-12-27T00:38:53.930Z,50.70
2017-12-27T00:39:58.681Z,50.60
2017-12-27T00:41:03.698Z,50.60
2017-12-27T00:42:08.513Z,50.60
2017-12-27T00:43:13.335Z,50.60
2017-12-27T00:44:18.242Z,50.60
2017-12-27T00:45:23.066Z,50.60
2017-12-27T00:46:28.056Z,50.50
2017-12-27T00:47:32.958Z,50.50
2017-12-27T00:48:37.885Z,50.50
2017-12-27T00:49:42.691Z,50.50
2017-12-27T00:50:47.453Z,50.50
2017-12-27T00:51:52.425Z,50.50
2017-12-27T00:52:57.289Z,50.50
2017-12-27T00:54:02.317Z,50.50
2017-12-27T00:55:08.007Z,50.50
2017-12-27T00:56:12.799Z,50.40
2017-12-27T00:57:17.786Z,50.40
2017-12-27T00:58:22.743Z,50.40
2017-12-27T00:59:27.554Z,50.50
2017-12-27T01:00:32.581Z,50.40
2017-12-27T01:01:37.413Z,50.40
2017-12-27T01:02:42.213Z,50.40
2017-12-27T01:03:46.977Z,50.40
2017-12-27T01:04:51.743Z,50.40
2017-12-27T01:05:56.679Z,50.40
2017-12-27T01:07:01.476Z,50.30
2017-12-27T01:08:06.521Z,50.40
2017-12-27T01:09:11.378Z,50.30
2017-12-27T01:10:16.898Z,50.20
2017-12-27T01:11:21.890Z,50.30
2017-12-27T01:12:26.631Z,50.30
2017-12-27T01:13:32.086Z,50.30
2017-12-27T01:14:36.828Z,50.30
2017-12-27T01:15:41.573Z,50.30
2017-12-27T01:16:46.307Z,50.30
2017-12-27T01:17:51.257Z,50.30
2017-12-27T01:18:56.004Z,50.20
2017-12-27T01:20:00.950Z,50.20
2017-12-27T01:21:05.672Z,50.20
2017-12-27T01:22:10.507Z,50.20
2017-12-27T01:23:15.342Z,50.20
2017-12-27T01:24:20.205Z,50.20
2017-12-27T01:25:25.139Z,50.20
2017-12-27T01:26:30.197Z,50.20
2017-12-27T01:27:35.633Z,50.20
2017-12-27T01:28:41.362Z,50.20
2017-12-27T01:29:46.860Z,50.20
2017-12-27T01:30:52.263Z,50.20
2017-12-27T01:31:58.274Z,50.10
2017-12-27T01:33:03.454Z,50.10
2017-12-27T01:34:08.680Z,50.10
2017-12-27T01:35:13.634Z,50.00
2017-12-27T01:36:18.466Z,50.00
2017-12-27T01:37:23.285Z,49.90
2017-12-27T01:38:28.310Z,49.90
2017-12-27T01:39:33.230Z,50.00
2017-12-27T01:40:38.062Z,50.00
2017-12-27T01:41:43.062Z,50.00
2017-12-27T01:42:48.108Z,49.90
2017-12-27T01:43:53.084Z,49.90
2017-12-27T01:44:58.081Z,49.90
2017-12-27T01:46:02.881Z,49.90
2017-12-27T01:47:07.853Z,49.90
2017-12-27T01:48:12.904Z,49.90
2017-12-27T01:49:17.676Z,49.90
2017-12-27T01:50:22.762Z,49.90
2017-12-27T01:51:27.579Z,49.90
2017-12-27T01:52:32.340Z,49.90
2017-12-27T01:53:37.031Z,49.90
2017-12-27T01:54:42.023Z,49.90
2017-12-27T01:55:46.793Z,49.80
2017-12-27T01:56:51.633Z,49.80
2017-12-27T01:57:56.576Z,49.80
2017-12-27T01:59:01.417Z,49.80
2017-12-27T02:00:06.230Z,49.90
2017-12-27T02:01:11.035Z,49.80
2017-12-27T02:02:16.051Z,49.90
2017-12-27T02:03:20.875Z,49.80
2017-12-27T02:04:25.894Z,49.80
2017-12-27T02:05:30.881Z,49.80
2017-12-27T02:06:35.653Z,49.80
2017-12-27T02:07:40.368Z,49.80
2017-12-27T02:08:45.440Z,49.70
2017-12-27T02:09:50.447Z,49.70
2017-12-27T02:10:55.194Z,49.70
2017-12-27T02:12:00.219Z,49.70
2017-12-27T02:13:05.173Z,49.70
2017-12-27T02:14:09.960Z,49.70
2017-12-27T02:15:14.780Z,49.70
2017-12-27T02:16:19.816Z,49.70
2017-12-27T02:17:25.394Z,49.70
2017-12-27T02:18:30.133Z,49.70
2017-12-27T02:19:35.113Z,49.70
2017-12-27T02:20:40.052Z,49.70
2017-12-27T02:21:44.850Z,49.60
2017-12-27T02:22:49.759Z,49.60
2017-12-27T02:23:54.717Z,49.60
2017-12-27T02:24:59.514Z,49.60
2017-12-27T02:26:04.272Z,49.60
2017-12-27T02:27:09.204Z,49.60
2017-12-27T02:28:14.077Z,49.60
2017-12-27T02:29:18.958Z,49.60
2017-12-27T02:30:23.741Z,49.60
2017-12-27T02:31:28.666Z,49.60
2017-12-27T02:32:33.568Z,49.50
2017-12-27T02:33:38.319Z,49.50
2017-12-27T02:34:43.020Z,49.50
2017-12-27T02:35:47.748Z,49.50
2017-12-27T02:36:52.485Z,49.50
2017-12-27T02:37:57.409Z,49.50
2017-12-27T02:39:02.364Z,49.50
2017-12-27T02:40:07.358Z,49.50
2017-12-27T02:41:12.054Z,49.50
2017-12-27T02:42:16.805Z,49.50
2017-12-27T02:43:21.664Z,49.50
2017-12-27T02:44:26.618Z,49.50
2017-12-27T02:45:32.482Z,49.50
2017-12-27T02:46:37.424Z,49.50
2017-12-27T02:47:42.129Z,49.40
2017-12-27T02:48:46.914Z,49.40
2017-12-27T02:49:51.815Z,49.40
2017-12-27T02:50:56.552Z,49.40
2017-12-27T02:52:01.469Z,49.40
2017-12-27T02:53:06.418Z,49.40
2017-12-27T02:54:11.719Z,49.40
2017-12-27T02:55:16.613Z,49.40
2017-12-27T02:56:21.366Z,49.40
2017-12-27T02:57:26.192Z,49.30
2017-12-27T02:58:31.113Z,49.40
2017-12-27T02:59:35.949Z,49.40
2017-12-27T03:00:40.954Z,49.30
2017-12-27T03:01:45.690Z,49.30
2017-12-27T03:02:50.777Z,49.20
2017-12-27T03:03:56.095Z,49.40
2017-12-27T03:05:01.257Z,49.50
2017-12-27T03:06:06.023Z,49.50
2017-12-27T03:07:10.862Z,49.60
2017-12-27T03:08:15.660Z,49.60
2017-12-27T03:09:20.687Z,49.70
2017-12-27T03:10:25.743Z,49.70
2017-12-27T03:11:30.572Z,49.80
2017-12-27T03:12:35.478Z,49.80
2017-12-27T03:13:40.417Z,49.90
2017-12-27T03:14:45.402Z,49.90
2017-12-27T03:15:50.364Z,50.00
2017-12-27T03:16:55.198Z,50.00
2017-12-27T03:18:00.174Z,50.10
2017-12-27T03:19:05.338Z,50.10
2017-12-27T03:20:10.194Z,50.20
2017-12-27T03:21:15.066Z,50.20
2017-12-27T03:22:20.541Z,50.20
2017-12-27T03:23:25.519Z,50.20
2017-12-27T03:24:30.323Z,50.10
2017-12-27T03:25:35.132Z,50.30
2017-12-27T03:26:39.977Z,50.30
2017-12-27T03:27:44.753Z,50.30
2017-12-27T03:28:49.695Z,50.30
2017-12-27T03:29:54.676Z,50.40
2017-12-27T03:30:59.420Z,50.40
2017-12-27T03:32:04.318Z,50.40
2017-12-27T03:33:09.082Z,50.50
2017-12-27T03:34:14.042Z,50.30
2017-12-27T03:35:18.984Z,50.40
2017-12-27T03:36:23.956Z,50.40
2017-12-27T03:37:28.756Z,50.40
2017-12-27T03:38:33.691Z,50.40
2017-12-27T03:39:38.661Z,50.40
2017-12-27T03:40:43.976Z,50.40
2017-12-27T03:41:48.915Z,50.50
2017-12-27T03:42:53.797Z,50.40
2017-12-27T03:43:58.599Z,50.50
2017-12-27T03:45:03.617Z,50.50
2017-12-27T03:46:08.555Z,50.50
2017-12-27T03:47:13.596Z,50.50
2017-12-27T03:48:18.639Z,50.50
2017-12-27T03:49:23.371Z,50.50
2017-12-27T03:50:28.388Z,50.50
2017-12-27T03:51:33.183Z,50.50
2017-12-27T03:52:38.219Z,50.50
2017-12-27T03:53:43.148Z,50.50
2017-12-27T03:54:47.934Z,50.50
2017-12-27T03:55:52.944Z,50.50
2017-12-27T03:56:57.817Z,50.50
2017-12-27T03:58:02.655Z,50.50
2017-12-27T03:59:08.118Z,50.50
2017-12-27T04:00:12.909Z,50.60
2017-12-27T04:01:17.926Z,50.50
2017-12-27T04:02:22.830Z,50.50
2017-12-27T04:03:27.773Z,50.60
2017-12-27T04:04:32.638Z,50.60
2017-12-27T04:05:37.575Z,50.60
2017-12-27T04:06:42.501Z,50.60
2017-12-27T04:07:47.378Z,50.60
2017-12-27T04:08:52.177Z,50.60
2017-12-27T04:09:57.132Z,50.60
2017-12-27T04:11:02.115Z,50.60
2017-12-27T04:12:06.843Z,50.60
2017-12-27T04:13:11.808Z,50.70
2017-12-27T04:14:16.527Z,50.70
2017-12-27T04:15:21.467Z,50.70
2017-12-27T04:16:26.490Z,50.60
2017-12-27T04:17:32.013Z,50.70
2017-12-27T04:18:36.917Z,50.60
2017-12-27T04:19:41.860Z,50.60
2017-12-27T04:20:46.811Z,50.60
2017-12-27T04:21:51.810Z,50.60
2017-12-27T04:22:56.696Z,50.60
2017-12-27T04:24:01.474Z,50.60
2017-12-27T04:25:06.409Z,50.70
2017-12-27T04:26:11.077Z,50.70
2017-12-27T04:27:15.993Z,50.60
2017-12-27T04:28:20.909Z,50.60
2017-12-27T04:29:25.696Z,50.70
2017-12-27T04:30:30.442Z,50.60
2017-12-27T04:31:35.321Z,50.60
2017-12-27T04:32:40.373Z,50.60
2017-12-27T04:33:45.194Z,50.60
2017-12-27T04:34:49.966Z,50.60
2017-12-27T04:35:55.523Z,50.60
2017-12-27T04:37:00.651Z,50.60
2017-12-27T04:38:05.422Z,50.50
2017-12-27T04:39:10.155Z,50.50
2017-12-27T04:40:14.947Z,50.60
2017-12-27T04:41:19.915Z,50.60
2017-12-27T04:42:24.704Z,50.50
2017-12-27T04:43:29.657Z,50.50
2017-12-27T04:44:34.397Z,50.50
2017-12-27T04:45:39.349Z,50.50
2017-12-27T04:46:44.278Z,50.50
2017-12-27T04:47:49.230Z,50.50
2017-12-27T04:48:54.058Z,50.40
2017-12-27T04:49:58.978Z,50.40
2017-12-27T04:51:03.787Z,50.40
2017-12-27T04:52:08.605Z,50.40
2017-12-27T04:53:13.424Z,50.40
2017-12-27T04:54:19.402Z,50.40
2017-12-27T04:55:24.217Z,50.40
2017-12-27T04:56:29.157Z,50.30
2017-12-27T04:57:34.109Z,50.30
2017-12-27T04:58:39.159Z,50.30
2017-12-27T04:59:43.918Z,50.30
2017-12-27T05:00:48.920Z,50.30
2017-12-27T05:01:53.620Z,50.30
2017-12-27T05:02:58.433Z,50.20
2017-12-27T05:04:03.444Z,50.20
2017-12-27T05:05:08.205Z,50.30
2017-12-27T05:06:13.005Z,50.10
2017-12-27T05:07:17.861Z,50.20
2017-12-27T05:08:22.658Z,50.30
2017-12-27T05:09:27.487Z,50.20
2017-12-27T05:10:32.871Z,50.20
2017-12-27T05:11:37.852Z,50.20
2017-12-27T05:12:43.628Z,50.20
2017-12-27T05:13:48.596Z,50.20
2017-12-27T05:14:53.309Z,50.20
2017-12-27T05:15:58.112Z,50.20
2017-12-27T05:17:02.832Z,50.20
2017-12-27T05:18:07.752Z,50.20
2017-12-27T05:19:12.695Z,50.20
2017-12-27T05:20:17.616Z,50.20
2017-12-27T05:21:22.517Z,50.30
2017-12-27T05:22:28.468Z,50.20
2017-12-27T05:23:33.229Z,50.20
2017-12-27T05:24:37.915Z,50.20
2017-12-27T05:25:42.861Z,50.20
2017-12-27T05:26:47.817Z,50.20
2017-12-27T05:27:52.595Z,50.10
2017-12-27T05:28:57.556Z,50.10
2017-12-27T05:30:02.597Z,50.10
2017-12-27T05:31:07.992Z,50.10
2017-12-27T05:32:12.744Z,50.10
2017-12-27T05:33:17.550Z,50.20
2017-12-27T05:34:22.343Z,50.10
2017-12-27T05:35:27.291Z,50.10
2017-12-27T05:36:32.099Z,50.10
2017-12-27T05:37:36.949Z,50.10
2017-12-27T05:38:41.819Z,50.10
2017-12-27T05:39:46.662Z,50.10
2017-12-27T05:40:51.669Z,50.10
2017-12-27T05:41:56.596Z,50.10
2017-12-27T05:43:01.581Z,50.10
2017-12-27T05:44:06.408Z,50.10
2017-12-27T05:45:11.227Z,50.10
2017-12-27T05:46:16.004Z,50.00
2017-12-27T05:47:20.925Z,50.10
2017-12-27T05:48:25.888Z,50.10
2017-12-27T05:49:30.678Z,50.10
2017-12-27T05:50:35.441Z,50.10
2017-12-27T05:51:40.419Z,50.00
2017-12-27T05:52:45.166Z,50.10
2017-12-27T05:53:50.013Z,50.00
2017-12-27T05:54:55.112Z,50.10
2017-12-27T05:56:00.053Z,50.00
2017-12-27T05:57:05.054Z,50.00
2017-12-27T05:58:10.071Z,50.20
2017-12-27T05:59:15.040Z,50.00
2017-12-27T06:00:20.029Z,50.00
2017-12-27T06:01:25.603Z,50.00
2017-12-27T06:02:30.425Z,50.00
2017-12-27T06:03:35.296Z,50.00
2017-12-27T06:04:40.302Z,50.60
2017-12-27T06:05:45.080Z,49.90
2017-12-27T06:06:50.056Z,49.90
2017-12-27T06:07:55.017Z,49.90
2017-12-27T06:08:59.802Z,49.90
2017-12-27T06:10:04.653Z,49.90
2017-12-27T06:11:09.650Z,49.90
2017-12-27T06:12:14.616Z,49.90
2017-12-27T06:13:19.448Z,49.90
2017-12-27T06:14:24.478Z,49.90
2017-12-27T06:15:29.384Z,49.80
2017-12-27T06:16:34.451Z,49.80
2017-12-27T06:17:39.330Z,49.70
2017-12-27T06:18:44.207Z,49.70
2017-12-27T06:19:49.925Z,49.70
2017-12-27T06:20:54.938Z,49.70
2017-12-27T06:21:59.886Z,49.70
2017-12-27T06:23:04.731Z,49.60
2017-12-27T06:24:09.727Z,49.90
2017-12-27T06:25:14.736Z,49.60
2017-12-27T06:26:19.514Z,49.60
2017-12-27T06:27:24.441Z,49.60
2017-12-27T06:28:29.143Z,49.60
2017-12-27T06:29:33.958Z,49.60
2017-12-27T06:30:38.975Z,49.70
2017-12-27T06:31:43.786Z,49.70
2017-12-27T06:32:48.513Z,49.60
2017-12-27T06:33:53.474Z,49.60
2017-12-27T06:34:58.456Z,49.70
2017-12-27T06:36:03.438Z,49.70
2017-12-27T06:37:08.180Z,49.80
2017-12-27T06:38:13.830Z,49.80
2017-12-27T06:39:18.644Z,49.90
2017-12-27T06:40:23.383Z,49.90
2017-12-27T06:41:28.388Z,50.00
2017-12-27T06:42:33.111Z,50.00
2017-12-27T06:43:38.018Z,49.90
2017-12-27T06:44:42.764Z,50.00
2017-12-27T06:45:47.631Z,50.00
2017-12-27T06:46:52.569Z,50.10
2017-12-27T06:47:57.468Z,50.10
2017-12-27T06:49:02.474Z,50.10
2017-12-27T06:50:07.454Z,50.10
2017-12-27T06:51:12.453Z,50.80
2017-12-27T06:52:17.226Z,50.10
2017-12-27T06:53:22.210Z,50.10
2017-12-27T06:54:27.121Z,50.20
2017-12-27T06:55:32.143Z,50.20
2017-12-27T06:56:37.851Z,50.20
2017-12-27T06:57:42.901Z,50.20
2017-12-27T06:58:47.927Z,50.20
2017-12-27T06:59:53.026Z,50.30
2017-12-27T07:00:57.943Z,50.20
2017-12-27T07:02:02.968Z,50.30
2017-12-27T07:03:08.042Z,50.30
2017-12-27T07:04:13.009Z,50.30
2017-12-27T07:05:18.183Z,51.00
2017-12-27T07:06:23.919Z,50.40
2017-12-27T07:07:28.936Z,50.40
2017-12-27T07:08:33.892Z,50.40
2017-12-27T07:09:38.837Z,50.40
2017-12-27T07:10:43.791Z,50.40
2017-12-27T07:11:48.654Z,50.40
2017-12-27T07:12:53.549Z,50.50
2017-12-27T07:13:58.531Z,50.40
2017-12-27T07:15:03.457Z,50.40
2017-12-27T07:16:08.288Z,50.50
2017-12-27T07:17:13.085Z,50.50
2017-12-27T07:18:18.063Z,51.10
2017-12-27T07:19:22.871Z,50.50
2017-12-27T07:20:27.790Z,50.50
2017-12-27T07:21:32.598Z,50.50
2017-12-27T07:22:37.438Z,50.50
2017-12-27T07:23:42.438Z,50.50
2017-12-27T07:24:47.250Z,50.50
2017-12-27T07:25:52.248Z,50.50
2017-12-27T07:26:57.031Z,50.60
2017-12-27T07:28:01.896Z,50.60
2017-12-27T07:29:07.332Z,50.60
2017-12-27T07:30:12.340Z,50.60
2017-12-27T07:31:17.256Z,50.70
2017-12-27T07:32:22.271Z,50.60
2017-12-27T07:33:27.345Z,50.60
2017-12-27T07:34:32.227Z,50.60
2017-12-27T07:35:37.102Z,50.60
2017-12-27T07:36:42.087Z,50.60
2017-12-27T07:37:46.919Z,50.60
2017-12-27T07:38:51.876Z,50.60
2017-12-27T07:39:56.692Z,50.70
2017-12-27T07:41:01.495Z,50.60
2017-12-27T07:42:06.466Z,50.70
2017-12-27T07:43:12.002Z,50.70
2017-12-27T07:44:16.833Z,50.70
2017-12-27T07:45:22.035Z,50.70
2017-12-27T07:46:26.997Z,50.70
2017-12-27T07:47:32.018Z,50.70
2017-12-27T07:48:36.847Z,50.70
2017-12-27T07:49:41.635Z,50.70
2017-12-27T07:50:46.658Z,50.80
2017-12-27T07:51:51.523Z,50.70
2017-12-27T07:52:56.342Z,50.60
2017-12-27T07:54:01.616Z,50.70
2017-12-27T07:55:06.536Z,50.70
2017-12-27T07:56:11.463Z,50.70
2017-12-27T07:57:16.442Z,50.80
2017-12-27T07:58:21.453Z,51.30
2017-12-27T07:59:26.532Z,50.70
2017-12-27T08:00:31.312Z,50.80
2017-12-27T08:01:36.650Z,50.80
2017-12-27T08:02:41.655Z,50.80
2017-12-27T08:03:46.691Z,50.80
2017-12-27T08:04:51.746Z,50.80
2017-12-27T08:05:56.661Z,50.80
2017-12-27T08:07:01.599Z,50.90
2017-12-27T08:08:06.577Z,50.90
2017-12-27T08:09:11.397Z,50.80
2017-12-27T08:10:16.334Z,50.90
2017-12-27T08:11:21.389Z,50.90
2017-12-27T08:12:26.347Z,50.90
2017-12-27T08:13:31.445Z,50.80
2017-12-27T08:14:36.384Z,50.90
2017-12-27T08:15:41.432Z,50.90
2017-12-27T08:16:46.491Z,50.90
2017-12-27T08:17:51.631Z,50.90
2017-12-27T08:18:56.669Z,50.90
2017-12-27T08:20:01.548Z,50.90
2017-12-27T08:21:06.417Z,51.00
2017-12-27T08:22:11.431Z,51.10
2017-12-27T08:23:16.300Z,51.20
2017-12-27T08:24:21.251Z,51.10
2017-12-27T08:25:26.110Z,49.50
2017-12-27T08:26:31.362Z,47.50
2017-12-27T08:27:36.726Z,46.60
2017-12-27T08:28:41.800Z,46.00
2017-12-27T08:29:46.946Z,45.30
2017-12-27T08:30:51.894Z,44.90
2017-12-27T08:31:56.895Z,44.70
2017-12-27T08:33:01.806Z,44.20
2017-12-27T08:34:06.692Z,43.90
2017-12-27T08:35:11.589Z,44.00
2017-12-27T08:36:16.332Z,43.40
2017-12-27T08:37:21.287Z,42.80
2017-12-27T08:38:26.208Z,42.20
2017-12-27T08:39:31.222Z,42.00
2017-12-27T08:40:36.334Z,41.30
2017-12-27T08:41:41.404Z,40.60
2017-12-27T08:42:46.426Z,40.50
2017-12-27T08:43:51.734Z,40.30
2017-12-27T08:44:57.622Z,40.30
2017-12-27T08:46:03.177Z,39.80
2017-12-27T08:47:10.245Z,39.20
2017-12-27T08:48:15.274Z,38.80
2017-12-27T08:49:20.929Z,38.70
2017-12-27T08:50:26.491Z,38.70
2017-12-27T08:51:31.626Z,39.00
2017-12-27T08:52:36.913Z,39.40
2017-12-27T08:53:44.425Z,39.90
2017-12-27T08:54:49.770Z,40.20
2017-12-27T08:55:54.956Z,40.90
2017-12-27T08:57:00.090Z,41.30
2017-12-27T08:58:05.177Z,41.70
2017-12-27T08:59:10.348Z,41.90
2017-12-27T09:00:15.276Z,42.10
2017-12-27T09:01:20.647Z,42.30
2017-12-27T09:02:25.696Z,42.60
2017-12-27T09:03:30.609Z,42.80
2017-12-27T09:04:35.721Z,43.00
2017-12-27T09:05:42.985Z,43.20
2017-12-27T09:06:48.073Z,43.30
2017-12-27T09:07:54.089Z,43.50
2017-12-27T09:08:59.107Z,43.60
2017-12-27T09:10:04.112Z,43.80
2017-12-27T09:11:09.231Z,44.70
2017-12-27T09:12:14.316Z,44.20
2017-12-27T09:13:19.416Z,44.30
2017-12-27T09:14:24.256Z,44.40
2017-12-27T09:15:29.439Z,44.60
2017-12-27T09:16:34.467Z,44.70
2017-12-27T09:17:39.446Z,44.80
2017-12-27T09:18:44.265Z,44.80
2017-12-27T09:19:49.085Z,45.00
2017-12-27T09:20:53.856Z,45.10
2017-12-27T09:21:58.825Z,45.20
2017-12-27T09:23:04.080Z,45.20
2017-12-27T09:24:08.964Z,45.30
2017-12-27T09:25:14.531Z,45.40
2017-12-27T09:26:19.832Z,45.40
2017-12-27T09:27:24.602Z,45.50
2017-12-27T09:28:29.357Z,45.50
2017-12-27T09:29:34.175Z,45.60
2017-12-27T09:30:39.172Z,45.60
2017-12-27T09:31:43.946Z,45.60
2017-12-27T09:32:48.983Z,46.00
2017-12-27T09:33:54.493Z,45.90
2017-12-27T09:34:59.322Z,45.90
2017-12-27T09:36:04.150Z,46.40
2017-12-27T09:37:09.193Z,46.20
2017-12-27T09:38:13.930Z,46.20
2017-12-27T09:39:19.472Z,46.50
2017-12-27T09:40:24.437Z,46.60
2017-12-27T09:41:29.264Z,46.50
2017-12-27T09:42:34.343Z,46.30
2017-12-27T09:43:39.289Z,46.30
2017-12-27T09:44:44.868Z,46.20
2017-12-27T09:45:49.751Z,46.30
2017-12-27T09:46:56.753Z,46.40
2017-12-27T09:48:01.585Z,46.40
2017-12-27T09:49:06.606Z,46.40
2017-12-27T09:50:11.585Z,46.50
2017-12-27T09:51:16.682Z,46.60
2017-12-27T09:52:21.619Z,46.50
2017-12-27T09:53:26.490Z,46.60
2017-12-27T09:54:31.361Z,46.60
2017-12-27T09:55:36.363Z,46.60
2017-12-27T09:56:41.374Z,46.60
2017-12-27T09:57:46.449Z,46.60
2017-12-27T09:58:51.506Z,46.60
2017-12-27T09:59:56.629Z,46.70
2017-12-27T10:01:01.699Z,46.60
2017-12-27T10:02:06.742Z,46.70
2017-12-27T10:03:11.647Z,46.80
2017-12-27T10:04:16.498Z,46.80
2017-12-27T10:05:21.442Z,46.80
2017-12-27T10:06:26.517Z,46.90
2017-12-27T10:07:31.409Z,47.00
2017-12-27T10:08:36.324Z,47.10
2017-12-27T10:09:41.386Z,47.20
2017-12-27T10:10:46.569Z,47.50
2017-12-27T10:11:51.717Z,47.80
2017-12-27T10:12:56.640Z,47.50
2017-12-27T10:14:06.053Z,47.40
2017-12-27T10:15:14.841Z,47.40
2017-12-27T10:16:20.356Z,47.50
2017-12-27T10:17:25.431Z,47.50
2017-12-27T10:18:30.991Z,47.40
2017-12-27T10:19:36.106Z,47.30
2017-12-27T10:20:40.985Z,47.30
2017-12-27T10:21:45.937Z,47.30
2017-12-27T10:22:50.966Z,47.40
2017-12-27T10:23:56.217Z,47.40
2017-12-27T10:25:01.198Z,47.60
2017-12-27T10:26:06.365Z,47.50
2017-12-27T10:27:11.329Z,47.60
2017-12-27T10:28:16.472Z,47.60
2017-12-27T10:29:21.662Z,47.80
2017-12-27T10:30:26.893Z,47.80
2017-12-27T10:31:31.941Z,47.80
2017-12-27T10:32:37.117Z,47.90
2017-12-27T10:33:42.217Z,47.90
2017-12-27T10:34:47.562Z,48.00
2017-12-27T10:35:52.961Z,48.00
2017-12-27T10:36:57.952Z,48.10
2017-12-27T10:38:03.156Z,48.10
2017-12-27T10:39:08.373Z,48.20
2017-12-27T10:40:13.469Z,48.30
2017-12-27T10:41:18.442Z,48.30
2017-12-27T10:42:23.355Z,48.30
2017-12-27T10:43:28.929Z,48.40
2017-12-27T10:44:34.199Z,48.50
2017-12-27T10:45:39.144Z,48.50
2017-12-27T10:46:44.140Z,48.50
2017-12-27T10:47:49.228Z,48.60
2017-12-27T10:48:54.238Z,48.70
2017-12-27T10:49:59.461Z,48.70
2017-12-27T10:51:04.750Z,48.70
2017-12-27T10:52:10.949Z,48.80
2017-12-27T10:53:16.101Z,48.80
2017-12-27T10:54:23.746Z,48.80
2017-12-27T10:55:29.325Z,48.80
2017-12-27T10:56:34.240Z,48.80
2017-12-27T10:57:39.811Z,48.90
2017-12-27T10:58:44.813Z,48.90
2017-12-27T10:59:49.973Z,48.90
2017-12-27T11:00:55.095Z,49.00
2017-12-27T11:01:59.911Z,49.00
2017-12-27T11:03:04.816Z,49.00
2017-12-27T11:04:10.475Z,49.10
2017-12-27T11:05:15.661Z,49.00
2017-12-27T11:06:20.787Z,49.00
2017-12-27T11:07:25.767Z,49.10
2017-12-27T11:08:30.909Z,49.10
2017-12-27T11:09:36.031Z,49.10
2017-12-27T11:10:41.376Z,49.10
2017-12-27T11:11:46.392Z,49.10
2017-12-27T11:12:51.518Z,49.20
2017-12-27T11:13:56.661Z,49.20
2017-12-27T11:15:01.754Z,49.20
2017-12-27T11:16:06.712Z,49.20
2017-12-27T11:17:11.743Z,49.20
2017-12-27T11:18:16.893Z,49.30
2017-12-27T11:19:21.849Z,49.20
2017-12-27T11:20:26.850Z,49.10
2017-12-27T11:21:32.091Z,49.10
2017-12-27T11:22:37.162Z,49.00
2017-12-27T11:23:42.243Z,49.10
2017-12-27T11:24:47.356Z,49.00
2017-12-27T11:25:53.312Z,49.00
2017-12-27T11:26:58.637Z,49.00
2017-12-27T11:28:03.674Z,49.10
2017-12-27T11:29:08.719Z,49.20
2017-12-27T11:30:13.673Z,49.10
2017-12-27T11:31:19.202Z,49.20
2017-12-27T11:32:24.326Z,49.20
2017-12-27T11:33:29.508Z,49.30
2017-12-27T11:34:34.539Z,49.30
2017-12-27T11:35:39.699Z,49.30
2017-12-27T11:36:44.950Z,49.30
2017-12-27T11:37:50.118Z,49.30
2017-12-27T11:38:55.204Z,49.30
2017-12-27T11:40:00.340Z,49.30
2017-12-27T11:41:05.560Z,49.30
2017-12-27T11:42:11.917Z,49.30
2017-12-27T11:43:17.031Z,49.40
2017-12-27T11:44:22.305Z,49.50
2017-12-27T11:45:27.345Z,49.50
2017-12-27T11:46:32.503Z,49.50
2017-12-27T11:47:37.698Z,49.50
2017-12-27T11:48:42.817Z,49.60
2017-12-27T11:49:47.857Z,49.60
2017-12-27T11:50:52.949Z,49.60
2017-12-27T11:51:58.250Z,49.70
2017-12-27T11:53:03.244Z,49.70
2017-12-27T11:54:08.480Z,49.80
2017-12-27T11:55:13.576Z,49.80
2017-12-27T11:56:18.711Z,49.80
2017-12-27T11:57:23.791Z,48.30
2017-12-27T11:58:28.750Z,47.00
2017-12-27T11:59:33.759Z,45.50
2017-12-27T12:00:38.652Z,43.90
2017-12-27T12:01:44.280Z,42.20
2017-12-27T12:02:49.500Z,41.50
2017-12-27T12:03:54.372Z,40.70
2017-12-27T12:04:59.539Z,40.80
2017-12-27T12:06:05.468Z,40.00
2017-12-27T12:07:10.573Z,39.30
2017-12-27T12:08:15.434Z,39.20
2017-12-27T12:09:20.592Z,39.70
2017-12-27T12:10:25.702Z,39.60
2017-12-27T12:11:30.663Z,39.00
2017-12-27T12:12:35.632Z,40.00
2017-12-27T12:13:40.671Z,41.00
2017-12-27T12:14:45.743Z,41.60
2017-12-27T12:15:50.573Z,42.00
2017-12-27T12:16:55.807Z,42.40
2017-12-27T12:18:02.228Z,42.60
2017-12-27T12:19:07.308Z,43.00
2017-12-27T12:20:12.396Z,43.20
2017-12-27T12:21:17.570Z,43.30
2017-12-27T12:22:22.609Z,43.50
2017-12-27T12:23:27.922Z,43.50
2017-12-27T12:24:33.040Z,43.70
2017-12-27T12:25:38.269Z,43.90
2017-12-27T12:26:56.227Z,44.00
2017-12-27T12:28:02.058Z,44.20
2017-12-27T12:29:07.149Z,44.30
2017-12-27T12:30:12.099Z,44.40
2017-12-27T12:31:17.056Z,44.50
2017-12-27T12:32:21.998Z,44.70
2017-12-27T12:33:26.989Z,44.80
2017-12-27T12:34:31.778Z,44.90
2017-12-27T12:35:36.786Z,45.10
2017-12-27T12:36:41.523Z,45.20
2017-12-27T12:37:46.432Z,45.30
2017-12-27T12:38:51.388Z,45.40
2017-12-27T12:39:56.379Z,45.50
2017-12-27T12:41:01.271Z,45.70
2017-12-27T12:42:06.075Z,45.70
2017-12-27T12:43:11.080Z,45.80
2017-12-27T12:44:15.938Z,46.00
2017-12-27T12:45:20.889Z,46.10
2017-12-27T12:46:25.857Z,46.20
2017-12-27T12:47:30.709Z,46.30
2017-12-27T12:48:35.626Z,46.40
2017-12-27T12:49:40.555Z,46.50
2017-12-27T12:50:45.547Z,46.50
2017-12-27T12:51:50.392Z,46.60
2017-12-27T12:52:55.374Z,46.70
2017-12-27T12:54:00.396Z,46.70
2017-12-27T12:55:05.217Z,46.80
2017-12-27T12:56:10.229Z,46.80
2017-12-27T12:57:14.967Z,46.90
2017-12-27T12:58:20.016Z,46.90
2017-12-27T12:59:24.735Z,47.00
2017-12-27T13:00:29.528Z,47.10
2017-12-27T13:01:34.318Z,47.10
2017-12-27T13:02:39.271Z,47.10
2017-12-27T13:03:44.556Z,47.20
2017-12-27T13:04:49.328Z,47.20
2017-12-27T13:05:54.163Z,47.30
2017-12-27T13:06:59.117Z,47.30
2017-12-27T13:08:04.136Z,47.30
2017-12-27T13:09:09.081Z,47.40
2017-12-27T13:10:13.918Z,47.40
2017-12-27T13:11:18.848Z,47.50
2017-12-27T13:12:23.668Z,47.50
2017-12-27T13:13:28.631Z,47.60
2017-12-27T13:14:33.590Z,47.60
2017-12-27T13:15:38.474Z,47.60
2017-12-27T13:16:44.544Z,47.70
2017-12-27T13:17:49.699Z,47.70
2017-12-27T13:18:54.654Z,47.70
2017-12-27T13:19:59.431Z,47.80
2017-12-27T13:21:04.557Z,47.80
2017-12-27T13:22:09.382Z,47.90
2017-12-27T13:23:14.491Z,47.90
2017-12-27T13:24:19.676Z,48.00
2017-12-27T13:25:24.502Z,47.90
2017-12-27T13:26:29.262Z,48.00
2017-12-27T13:27:33.973Z,48.00
2017-12-27T13:28:39.005Z,48.00
2017-12-27T13:29:43.958Z,48.00
2017-12-27T13:30:48.779Z,48.00
2017-12-27T13:31:53.596Z,48.10
2017-12-27T13:32:58.521Z,48.10
2017-12-27T13:34:03.508Z,48.10
2017-12-27T13:35:08.470Z,48.10
2017-12-27T13:36:13.527Z,48.20
2017-12-27T13:37:18.312Z,48.20
2017-12-27T13:38:23.175Z,48.30
2017-12-27T13:39:28.226Z,48.30
2017-12-27T13:40:33.068Z,48.30
2017-12-27T13:41:37.907Z,48.30
2017-12-27T13:42:42.855Z,48.30
2017-12-27T13:43:47.861Z,48.30
2017-12-27T13:44:52.731Z,48.30
2017-12-27T13:45:57.564Z,48.40
2017-12-27T13:47:02.470Z,48.40
2017-12-27T13:48:07.487Z,48.40
2017-12-27T13:49:12.294Z,48.40
2017-12-27T13:50:17.369Z,48.40
2017-12-27T13:51:22.554Z,48.30
2017-12-27T13:52:27.578Z,48.40
2017-12-27T13:53:32.410Z,48.40
2017-12-27T13:54:37.309Z,48.50
2017-12-27T13:55:42.726Z,48.50
2017-12-27T13:56:47.710Z,48.50
2017-12-27T13:57:52.717Z,48.60